sensor_id;sensor_type;location;lat;lon;timestamp;P1;durP1;ratioP1;P2;durP2;ratioP2
51732;SDS011;39139;53.144;6.244;2024-01-27T00:01:49;37.65;;;4.90;;
51732;SDS011;39139;53.144;6.244;2024-01-27T00:04:15;32.40;;;5.00;;
51732;SDS011;39139;53.144;6.244;2024-01-27T00:06:41;30.95;;;4.53;;
51732;SDS011;39139;53.144;6.244;2024-01-27T00:09:07;29.73;;;6.53;;
51732;SDS011;39139;53.144;6.244;2024-01-27T00:11:32;36.00;;;5.20;;
51732;SDS011;39139;53.144;6.244;2024-01-27T00:13:58;36.53;;;5.13;;
51732;SDS011;39139;53.144;6.244;2024-01-27T00:16:27;29.58;;;5.22;;
51732;SDS011;39139;53.144;6.244;2024-01-27T00:18:52;33.25;;;5.47;;
51732;SDS011;39139;53.144;6.244;2024-01-27T00:21:18;41.63;;;5.68;;
51732;SDS011;39139;53.144;6.244;2024-01-27T00:23:44;41.20;;;5.45;;
51732;SDS011;39139;53.144;6.244;2024-01-27T00:26:09;32.60;;;4.82;;
51732;SDS011;39139;53.144;6.244;2024-01-27T00:28:36;29.08;;;4.93;;
51732;SDS011;39139;53.144;6.244;2024-01-27T00:31:01;38.17;;;5.50;;
51732;SDS011;39139;53.144;6.244;2024-01-27T00:33:27;29.80;;;5.13;;
51732;SDS011;39139;53.144;6.244;2024-01-27T00:35:53;33.55;;;4.88;;
51732;SDS011;39139;53.144;6.244;2024-01-27T00:38:19;27.55;;;5.13;;
51732;SDS011;39139;53.144;6.244;2024-01-27T00:40:44;21.33;;;5.10;;
51732;SDS011;39139;53.144;6.244;2024-01-27T00:43:10;31.42;;;5.88;;
51732;SDS011;39139;53.144;6.244;2024-01-27T00:45:36;30.13;;;5.07;;
51732;SDS011;39139;53.144;6.244;2024-01-27T00:48:01;29.65;;;4.28;;
51732;SDS011;39139;53.144;6.244;2024-01-27T00:50:27;35.45;;;5.70;;
51732;SDS011;39139;53.144;6.244;2024-01-27T00:52:52;38.63;;;6.20;;
51732;SDS011;39139;53.144;6.244;2024-01-27T00:55:18;32.25;;;5.72;;
51732;SDS011;39139;53.144;6.244;2024-01-27T00:57:44;28.65;;;5.85;;
51732;SDS011;39139;53.144;6.244;2024-01-27T01:00:10;28.95;;;5.25;;
51732;SDS011;39139;53.144;6.244;2024-01-27T01:02:37;31.35;;;4.75;;
51732;SDS011;39139;53.144;6.244;2024-01-27T01:05:03;23.35;;;4.95;;
51732;SDS011;39139;53.144;6.244;2024-01-27T01:07:29;34.58;;;5.05;;
51732;SDS011;39139;53.144;6.244;2024-01-27T01:09:55;33.35;;;4.72;;
51732;SDS011;39139;53.144;6.244;2024-01-27T01:12:21;39.30;;;4.55;;
51732;SDS011;39139;53.144;6.244;2024-01-27T01:14:47;24.58;;;4.20;;
51732;SDS011;39139;53.144;6.244;2024-01-27T01:17:12;24.65;;;4.03;;
51732;SDS011;39139;53.144;6.244;2024-01-27T01:19:39;24.75;;;4.13;;
51732;SDS011;39139;53.144;6.244;2024-01-27T01:22:05;26.90;;;4.45;;
51732;SDS011;39139;53.144;6.244;2024-01-27T01:24:32;29.42;;;4.35;;
51732;SDS011;39139;53.144;6.244;2024-01-27T01:26:57;27.52;;;4.15;;
51732;SDS011;39139;53.144;6.244;2024-01-27T01:29:24;27.38;;;4.70;;
51732;SDS011;39139;53.144;6.244;2024-01-27T01:31:49;37.28;;;4.93;;
51732;SDS011;39139;53.144;6.244;2024-01-27T01:34:15;31.77;;;4.68;;
51732;SDS011;39139;53.144;6.244;2024-01-27T01:36:41;24.48;;;4.70;;
51732;SDS011;39139;53.144;6.244;2024-01-27T01:39:06;27.00;;;3.42;;
51732;SDS011;39139;53.144;6.244;2024-01-27T01:41:32;33.70;;;5.03;;
51732;SDS011;39139;53.144;6.244;2024-01-27T01:43:58;30.20;;;4.05;;
51732;SDS011;39139;53.144;6.244;2024-01-27T01:46:24;25.92;;;4.47;;
51732;SDS011;39139;53.144;6.244;2024-01-27T01:48:50;25.75;;;4.53;;
51732;SDS011;39139;53.144;6.244;2024-01-27T01:51:16;23.73;;;4.95;;
51732;SDS011;39139;53.144;6.244;2024-01-27T01:53:42;21.10;;;3.92;;
51732;SDS011;39139;53.144;6.244;2024-01-27T01:56:08;20.80;;;3.65;;
51732;SDS011;39139;53.144;6.244;2024-01-27T01:58:34;24.73;;;3.80;;
51732;SDS011;39139;53.144;6.244;2024-01-27T02:01:00;24.63;;;4.43;;
51732;SDS011;39139;53.144;6.244;2024-01-27T02:03:26;18.13;;;3.78;;
51732;SDS011;39139;53.144;6.244;2024-01-27T02:05:52;22.65;;;3.92;;
51732;SDS011;39139;53.144;6.244;2024-01-27T02:08:18;23.70;;;4.78;;
51732;SDS011;39139;53.144;6.244;2024-01-27T02:10:45;21.10;;;3.45;;
51732;SDS011;39139;53.144;6.244;2024-01-27T02:15:46;27.10;;;4.25;;
51732;SDS011;39139;53.144;6.244;2024-01-27T02:18:13;25.58;;;3.70;;
51732;SDS011;39139;53.144;6.244;2024-01-27T02:20:39;26.35;;;4.25;;
51732;SDS011;39139;53.144;6.244;2024-01-27T02:23:04;35.33;;;4.20;;
51732;SDS011;39139;53.144;6.244;2024-01-27T02:25:31;20.58;;;3.60;;
51732;SDS011;39139;53.144;6.244;2024-01-27T02:28:00;38.08;;;4.63;;
51732;SDS011;39139;53.144;6.244;2024-01-27T02:30:28;27.23;;;4.63;;
51732;SDS011;39139;53.144;6.244;2024-01-27T02:32:55;25.90;;;4.00;;
51732;SDS011;39139;53.144;6.244;2024-01-27T02:35:22;31.42;;;5.18;;
51732;SDS011;39139;53.144;6.244;2024-01-27T02:37:47;36.33;;;4.53;;
51732;SDS011;39139;53.144;6.244;2024-01-27T02:40:14;31.23;;;4.50;;
51732;SDS011;39139;53.144;6.244;2024-01-27T02:42:40;25.25;;;4.05;;
51732;SDS011;39139;53.144;6.244;2024-01-27T02:45:09;23.50;;;4.07;;
51732;SDS011;39139;53.144;6.244;2024-01-27T02:47:36;26.33;;;4.22;;
51732;SDS011;39139;53.144;6.244;2024-01-27T02:50:01;31.50;;;4.03;;
51732;SDS011;39139;53.144;6.244;2024-01-27T02:52:27;36.53;;;4.30;;
51732;SDS011;39139;53.144;6.244;2024-01-27T02:54:53;33.10;;;4.70;;
51732;SDS011;39139;53.144;6.244;2024-01-27T02:57:19;35.92;;;4.95;;
51732;SDS011;39139;53.144;6.244;2024-01-27T02:59:47;37.42;;;5.30;;
51732;SDS011;39139;53.144;6.244;2024-01-27T03:02:14;26.65;;;3.72;;
51732;SDS011;39139;53.144;6.244;2024-01-27T03:04:40;24.45;;;4.22;;
51732;SDS011;39139;53.144;6.244;2024-01-27T03:07:06;23.85;;;4.25;;
51732;SDS011;39139;53.144;6.244;2024-01-27T03:09:31;34.65;;;4.30;;
51732;SDS011;39139;53.144;6.244;2024-01-27T03:11:57;27.70;;;4.22;;
51732;SDS011;39139;53.144;6.244;2024-01-27T03:14:23;28.67;;;4.55;;
51732;SDS011;39139;53.144;6.244;2024-01-27T03:16:49;37.08;;;4.88;;
51732;SDS011;39139;53.144;6.244;2024-01-27T03:19:15;31.88;;;5.32;;
51732;SDS011;39139;53.144;6.244;2024-01-27T03:21:41;27.00;;;3.78;;
51732;SDS011;39139;53.144;6.244;2024-01-27T03:24:07;29.10;;;3.85;;
51732;SDS011;39139;53.144;6.244;2024-01-27T03:26:32;24.10;;;3.78;;
51732;SDS011;39139;53.144;6.244;2024-01-27T03:28:58;24.70;;;4.28;;
51732;SDS011;39139;53.144;6.244;2024-01-27T03:31:29;28.48;;;4.47;;
51732;SDS011;39139;53.144;6.244;2024-01-27T03:33:56;39.95;;;5.47;;
51732;SDS011;39139;53.144;6.244;2024-01-27T03:36:21;24.33;;;4.15;;
51732;SDS011;39139;53.144;6.244;2024-01-27T03:38:47;23.83;;;4.22;;
51732;SDS011;39139;53.144;6.244;2024-01-27T03:41:13;25.45;;;4.55;;
51732;SDS011;39139;53.144;6.244;2024-01-27T03:43:38;24.50;;;4.72;;
51732;SDS011;39139;53.144;6.244;2024-01-27T03:46:04;25.98;;;4.30;;
51732;SDS011;39139;53.144;6.244;2024-01-27T03:48:29;21.27;;;3.85;;
51732;SDS011;39139;53.144;6.244;2024-01-27T03:50:55;37.42;;;4.60;;
51732;SDS011;39139;53.144;6.244;2024-01-27T03:53:21;24.15;;;5.03;;
51732;SDS011;39139;53.144;6.244;2024-01-27T03:55:46;27.98;;;4.55;;
51732;SDS011;39139;53.144;6.244;2024-01-27T03:58:12;20.08;;;4.65;;
51732;SDS011;39139;53.144;6.244;2024-01-27T04:00:38;24.83;;;4.10;;
51732;SDS011;39139;53.144;6.244;2024-01-27T04:03:04;22.58;;;4.90;;
51732;SDS011;39139;53.144;6.244;2024-01-27T04:05:30;24.58;;;4.85;;
51732;SDS011;39139;53.144;6.244;2024-01-27T04:07:56;31.88;;;5.63;;
51732;SDS011;39139;53.144;6.244;2024-01-27T04:10:22;35.05;;;5.75;;
51732;SDS011;39139;53.144;6.244;2024-01-27T04:12:48;28.58;;;4.50;;
51732;SDS011;39139;53.144;6.244;2024-01-27T04:15:14;33.33;;;4.20;;
51732;SDS011;39139;53.144;6.244;2024-01-27T04:17:40;26.83;;;4.95;;
51732;SDS011;39139;53.144;6.244;2024-01-27T04:20:07;26.20;;;4.15;;
51732;SDS011;39139;53.144;6.244;2024-01-27T04:22:33;31.73;;;5.18;;
51732;SDS011;39139;53.144;6.244;2024-01-27T04:24:59;36.15;;;5.55;;
51732;SDS011;39139;53.144;6.244;2024-01-27T04:27:28;19.30;;;4.75;;
51732;SDS011;39139;53.144;6.244;2024-01-27T04:29:54;27.38;;;4.43;;
51732;SDS011;39139;53.144;6.244;2024-01-27T04:32:19;34.95;;;4.80;;
51732;SDS011;39139;53.144;6.244;2024-01-27T04:34:46;29.52;;;4.72;;
51732;SDS011;39139;53.144;6.244;2024-01-27T04:37:12;23.20;;;4.45;;
51732;SDS011;39139;53.144;6.244;2024-01-27T04:39:38;31.58;;;4.60;;
51732;SDS011;39139;53.144;6.244;2024-01-27T04:42:03;32.03;;;5.13;;
51732;SDS011;39139;53.144;6.244;2024-01-27T04:44:31;36.15;;;4.75;;
51732;SDS011;39139;53.144;6.244;2024-01-27T04:46:57;39.40;;;5.72;;
51732;SDS011;39139;53.144;6.244;2024-01-27T04:49:22;25.42;;;4.70;;
51732;SDS011;39139;53.144;6.244;2024-01-27T04:51:48;26.60;;;4.82;;
51732;SDS011;39139;53.144;6.244;2024-01-27T04:54:13;28.42;;;5.75;;
51732;SDS011;39139;53.144;6.244;2024-01-27T04:56:39;34.03;;;5.38;;
51732;SDS011;39139;53.144;6.244;2024-01-27T04:59:05;25.67;;;6.07;;
51732;SDS011;39139;53.144;6.244;2024-01-27T05:01:31;23.63;;;5.53;;
51732;SDS011;39139;53.144;6.244;2024-01-27T05:03:57;33.28;;;4.70;;
51732;SDS011;39139;53.144;6.244;2024-01-27T05:06:22;25.55;;;6.13;;
51732;SDS011;39139;53.144;6.244;2024-01-27T05:08:48;26.45;;;5.18;;
51732;SDS011;39139;53.144;6.244;2024-01-27T05:11:15;21.55;;;4.50;;
51732;SDS011;39139;53.144;6.244;2024-01-27T05:13:42;22.42;;;5.15;;
51732;SDS011;39139;53.144;6.244;2024-01-27T05:16:08;29.77;;;5.25;;
51732;SDS011;39139;53.144;6.244;2024-01-27T05:18:34;22.38;;;4.97;;
51732;SDS011;39139;53.144;6.244;2024-01-27T05:20:59;34.75;;;5.38;;
51732;SDS011;39139;53.144;6.244;2024-01-27T05:23:25;27.80;;;5.65;;
51732;SDS011;39139;53.144;6.244;2024-01-27T05:25:51;24.35;;;5.15;;
51732;SDS011;39139;53.144;6.244;2024-01-27T05:28:16;33.42;;;6.55;;
51732;SDS011;39139;53.144;6.244;2024-01-27T05:30:42;31.80;;;5.47;;
51732;SDS011;39139;53.144;6.244;2024-01-27T05:33:08;22.35;;;5.00;;
51732;SDS011;39139;53.144;6.244;2024-01-27T05:35:34;27.52;;;5.03;;
51732;SDS011;39139;53.144;6.244;2024-01-27T05:37:59;27.80;;;5.43;;
51732;SDS011;39139;53.144;6.244;2024-01-27T05:40:25;23.77;;;5.35;;
51732;SDS011;39139;53.144;6.244;2024-01-27T05:42:51;27.20;;;5.90;;
51732;SDS011;39139;53.144;6.244;2024-01-27T05:45:17;25.98;;;5.28;;
51732;SDS011;39139;53.144;6.244;2024-01-27T05:47:43;23.42;;;4.95;;
51732;SDS011;39139;53.144;6.244;2024-01-27T05:50:08;35.28;;;5.25;;
51732;SDS011;39139;53.144;6.244;2024-01-27T05:52:35;24.92;;;4.03;;
51732;SDS011;39139;53.144;6.244;2024-01-27T05:55:01;31.83;;;5.10;;
51732;SDS011;39139;53.144;6.244;2024-01-27T05:57:27;26.80;;;5.53;;
51732;SDS011;39139;53.144;6.244;2024-01-27T05:59:53;16.90;;;3.70;;
51732;SDS011;39139;53.144;6.244;2024-01-27T06:02:19;28.00;;;4.78;;
51732;SDS011;39139;53.144;6.244;2024-01-27T06:04:45;18.80;;;4.35;;
51732;SDS011;39139;53.144;6.244;2024-01-27T06:07:10;21.45;;;3.92;;
51732;SDS011;39139;53.144;6.244;2024-01-27T06:09:39;31.70;;;5.07;;
51732;SDS011;39139;53.144;6.244;2024-01-27T06:12:05;24.90;;;4.95;;
51732;SDS011;39139;53.144;6.244;2024-01-27T06:14:30;21.92;;;5.00;;
51732;SDS011;39139;53.144;6.244;2024-01-27T06:16:56;33.03;;;5.28;;
51732;SDS011;39139;53.144;6.244;2024-01-27T06:19:22;19.40;;;4.10;;
51732;SDS011;39139;53.144;6.244;2024-01-27T06:21:47;26.40;;;4.22;;
51732;SDS011;39139;53.144;6.244;2024-01-27T06:24:13;25.00;;;4.65;;
51732;SDS011;39139;53.144;6.244;2024-01-27T06:26:39;30.38;;;4.85;;
51732;SDS011;39139;53.144;6.244;2024-01-27T06:29:04;29.83;;;4.88;;
51732;SDS011;39139;53.144;6.244;2024-01-27T06:31:30;21.05;;;4.78;;
51732;SDS011;39139;53.144;6.244;2024-01-27T06:33:55;20.98;;;4.43;;
51732;SDS011;39139;53.144;6.244;2024-01-27T06:36:21;25.70;;;5.00;;
51732;SDS011;39139;53.144;6.244;2024-01-27T06:38:49;28.13;;;4.25;;
51732;SDS011;39139;53.144;6.244;2024-01-27T06:41:16;31.02;;;4.60;;
51732;SDS011;39139;53.144;6.244;2024-01-27T06:43:42;24.92;;;4.72;;
51732;SDS011;39139;53.144;6.244;2024-01-27T06:46:08;25.15;;;4.57;;
51732;SDS011;39139;53.144;6.244;2024-01-27T06:48:33;22.85;;;4.28;;
51732;SDS011;39139;53.144;6.244;2024-01-27T06:50:59;21.48;;;4.13;;
51732;SDS011;39139;53.144;6.244;2024-01-27T06:53:25;20.55;;;4.55;;
51732;SDS011;39139;53.144;6.244;2024-01-27T06:55:51;26.58;;;3.45;;
51732;SDS011;39139;53.144;6.244;2024-01-27T06:58:17;26.52;;;3.70;;
51732;SDS011;39139;53.144;6.244;2024-01-27T07:00:42;16.30;;;3.60;;
51732;SDS011;39139;53.144;6.244;2024-01-27T07:03:09;28.50;;;3.90;;
51732;SDS011;39139;53.144;6.244;2024-01-27T07:05:35;26.27;;;4.22;;
51732;SDS011;39139;53.144;6.244;2024-01-27T07:08:06;23.77;;;3.78;;
51732;SDS011;39139;53.144;6.244;2024-01-27T07:10:32;21.10;;;3.38;;
51732;SDS011;39139;53.144;6.244;2024-01-27T07:12:58;22.70;;;4.57;;
51732;SDS011;39139;53.144;6.244;2024-01-27T07:15:24;19.95;;;4.32;;
51732;SDS011;39139;53.144;6.244;2024-01-27T07:17:50;43.00;;;5.13;;
51732;SDS011;39139;53.144;6.244;2024-01-27T07:20:16;21.13;;;3.85;;
51732;SDS011;39139;53.144;6.244;2024-01-27T07:22:41;23.23;;;4.22;;
51732;SDS011;39139;53.144;6.244;2024-01-27T07:25:07;26.92;;;4.55;;
51732;SDS011;39139;53.144;6.244;2024-01-27T07:27:35;28.08;;;4.85;;
51732;SDS011;39139;53.144;6.244;2024-01-27T07:30:01;27.60;;;4.50;;
51732;SDS011;39139;53.144;6.244;2024-01-27T07:32:27;21.60;;;4.32;;
51732;SDS011;39139;53.144;6.244;2024-01-27T07:34:53;23.35;;;4.20;;
51732;SDS011;39139;53.144;6.244;2024-01-27T07:37:18;22.52;;;4.45;;
51732;SDS011;39139;53.144;6.244;2024-01-27T07:39:46;29.83;;;4.30;;
51732;SDS011;39139;53.144;6.244;2024-01-27T07:42:13;19.17;;;3.70;;
51732;SDS011;39139;53.144;6.244;2024-01-27T07:44:39;27.85;;;4.82;;
51732;SDS011;39139;53.144;6.244;2024-01-27T07:47:05;37.80;;;5.57;;
51732;SDS011;39139;53.144;6.244;2024-01-27T07:49:31;25.23;;;5.90;;
51732;SDS011;39139;53.144;6.244;2024-01-27T07:51:56;32.40;;;5.05;;
51732;SDS011;39139;53.144;6.244;2024-01-27T07:54:22;36.70;;;4.63;;
51732;SDS011;39139;53.144;6.244;2024-01-27T07:56:48;30.15;;;5.57;;
51732;SDS011;39139;53.144;6.244;2024-01-27T07:59:13;34.63;;;5.90;;
51732;SDS011;39139;53.144;6.244;2024-01-27T08:01:39;28.50;;;6.18;;
51732;SDS011;39139;53.144;6.244;2024-01-27T08:04:05;36.95;;;6.20;;
51732;SDS011;39139;53.144;6.244;2024-01-27T08:06:31;18.67;;;6.30;;
51732;SDS011;39139;53.144;6.244;2024-01-27T08:08:57;25.05;;;5.78;;
51732;SDS011;39139;53.144;6.244;2024-01-27T08:11:22;18.77;;;5.63;;
51732;SDS011;39139;53.144;6.244;2024-01-27T08:13:49;23.08;;;7.10;;
51732;SDS011;39139;53.144;6.244;2024-01-27T08:16:15;30.10;;;7.20;;
51732;SDS011;39139;53.144;6.244;2024-01-27T08:18:41;28.67;;;6.72;;
51732;SDS011;39139;53.144;6.244;2024-01-27T08:21:09;25.25;;;6.20;;
51732;SDS011;39139;53.144;6.244;2024-01-27T08:23:35;33.67;;;6.75;;
51732;SDS011;39139;53.144;6.244;2024-01-27T08:26:01;26.23;;;5.93;;
51732;SDS011;39139;53.144;6.244;2024-01-27T08:28:27;28.08;;;6.22;;
51732;SDS011;39139;53.144;6.244;2024-01-27T08:30:52;21.10;;;5.38;;
51732;SDS011;39139;53.144;6.244;2024-01-27T08:33:18;21.73;;;6.20;;
51732;SDS011;39139;53.144;6.244;2024-01-27T08:35:46;31.98;;;6.03;;
51732;SDS011;39139;53.144;6.244;2024-01-27T08:38:13;32.58;;;6.80;;
51732;SDS011;39139;53.144;6.244;2024-01-27T08:40:38;24.80;;;6.10;;
51732;SDS011;39139;53.144;6.244;2024-01-27T08:43:04;33.88;;;5.68;;
51732;SDS011;39139;53.144;6.244;2024-01-27T08:45:31;27.75;;;6.30;;
51732;SDS011;39139;53.144;6.244;2024-01-27T08:47:57;20.98;;;5.85;;
51732;SDS011;39139;53.144;6.244;2024-01-27T08:50:22;22.60;;;5.35;;
51732;SDS011;39139;53.144;6.244;2024-01-27T08:52:48;26.23;;;5.75;;
51732;SDS011;39139;53.144;6.244;2024-01-27T08:55:13;30.73;;;6.40;;
51732;SDS011;39139;53.144;6.244;2024-01-27T08:57:39;29.45;;;5.93;;
51732;SDS011;39139;53.144;6.244;2024-01-27T09:00:05;25.02;;;5.88;;
51732;SDS011;39139;53.144;6.244;2024-01-27T09:02:31;23.13;;;6.28;;
51732;SDS011;39139;53.144;6.244;2024-01-27T09:04:57;22.33;;;5.55;;
51732;SDS011;39139;53.144;6.244;2024-01-27T09:07:23;20.55;;;6.57;;
51732;SDS011;39139;53.144;6.244;2024-01-27T09:09:49;20.52;;;5.75;;
51732;SDS011;39139;53.144;6.244;2024-01-27T09:12:14;17.67;;;6.20;;
51732;SDS011;39139;53.144;6.244;2024-01-27T09:14:40;19.08;;;6.00;;
51732;SDS011;39139;53.144;6.244;2024-01-27T09:17:06;25.90;;;6.68;;
51732;SDS011;39139;53.144;6.244;2024-01-27T09:19:31;24.40;;;6.97;;
51732;SDS011;39139;53.144;6.244;2024-01-27T09:21:57;22.65;;;6.80;;
51732;SDS011;39139;53.144;6.244;2024-01-27T09:24:23;20.23;;;6.20;;
51732;SDS011;39139;53.144;6.244;2024-01-27T09:26:48;31.50;;;6.68;;
51732;SDS011;39139;53.144;6.244;2024-01-27T09:29:14;24.98;;;6.78;;
51732;SDS011;39139;53.144;6.244;2024-01-27T09:31:40;23.65;;;6.43;;
51732;SDS011;39139;53.144;6.244;2024-01-27T09:34:05;28.60;;;7.05;;
51732;SDS011;39139;53.144;6.244;2024-01-27T09:36:31;30.00;;;6.78;;
51732;SDS011;39139;53.144;6.244;2024-01-27T09:38:56;25.27;;;7.00;;
51732;SDS011;39139;53.144;6.244;2024-01-27T09:41:24;21.15;;;7.05;;
51732;SDS011;39139;53.144;6.244;2024-01-27T09:43:56;29.10;;;6.85;;
51732;SDS011;39139;53.144;6.244;2024-01-27T09:46:27;30.27;;;7.00;;
51732;SDS011;39139;53.144;6.244;2024-01-27T09:48:54;29.05;;;7.35;;
51732;SDS011;39139;53.144;6.244;2024-01-27T09:51:19;22.58;;;6.97;;
51732;SDS011;39139;53.144;6.244;2024-01-27T09:53:45;24.88;;;7.68;;
51732;SDS011;39139;53.144;6.244;2024-01-27T09:56:12;21.63;;;7.45;;
51732;SDS011;39139;53.144;6.244;2024-01-27T09:58:43;27.92;;;6.93;;
51732;SDS011;39139;53.144;6.244;2024-01-27T10:01:14;18.90;;;6.65;;
51732;SDS011;39139;53.144;6.244;2024-01-27T10:03:43;20.15;;;7.35;;
51732;SDS011;39139;53.144;6.244;2024-01-27T10:06:09;22.20;;;7.30;;
51732;SDS011;39139;53.144;6.244;2024-01-27T10:08:35;21.77;;;7.88;;
51732;SDS011;39139;53.144;6.244;2024-01-27T10:11:05;22.02;;;7.25;;
51732;SDS011;39139;53.144;6.244;2024-01-27T10:13:33;23.25;;;6.55;;
51732;SDS011;39139;53.144;6.244;2024-01-27T10:15:59;17.08;;;6.13;;
51732;SDS011;39139;53.144;6.244;2024-01-27T10:18:29;25.48;;;6.40;;
51732;SDS011;39139;53.144;6.244;2024-01-27T10:20:55;24.45;;;7.15;;
51732;SDS011;39139;53.144;6.244;2024-01-27T10:23:21;19.25;;;7.20;;
51732;SDS011;39139;53.144;6.244;2024-01-27T10:25:47;23.45;;;7.22;;
51732;SDS011;39139;53.144;6.244;2024-01-27T10:28:13;21.40;;;7.05;;
51732;SDS011;39139;53.144;6.244;2024-01-27T10:30:39;16.08;;;6.03;;
51732;SDS011;39139;53.144;6.244;2024-01-27T10:33:07;32.30;;;7.10;;
51732;SDS011;39139;53.144;6.244;2024-01-27T10:38:01;24.75;;;6.05;;
51732;SDS011;39139;53.144;6.244;2024-01-27T10:40:26;19.33;;;4.57;;
51732;SDS011;39139;53.144;6.244;2024-01-27T10:42:58;24.10;;;4.82;;
51732;SDS011;39139;53.144;6.244;2024-01-27T10:45:29;28.42;;;6.70;;
51732;SDS011;39139;53.144;6.244;2024-01-27T10:48:02;18.92;;;5.75;;
51732;SDS011;39139;53.144;6.244;2024-01-27T10:50:28;24.38;;;5.80;;
51732;SDS011;39139;53.144;6.244;2024-01-27T10:52:57;20.67;;;4.72;;
51732;SDS011;39139;53.144;6.244;2024-01-27T10:55:23;27.20;;;5.82;;
51732;SDS011;39139;53.144;6.244;2024-01-27T10:57:50;21.15;;;5.35;;
51732;SDS011;39139;53.144;6.244;2024-01-27T11:00:18;23.73;;;5.60;;
51732;SDS011;39139;53.144;6.244;2024-01-27T11:02:44;19.15;;;4.90;;
51732;SDS011;39139;53.144;6.244;2024-01-27T11:05:11;19.20;;;5.47;;
51732;SDS011;39139;53.144;6.244;2024-01-27T11:07:40;17.98;;;5.25;;
51732;SDS011;39139;53.144;6.244;2024-01-27T11:10:07;19.60;;;4.90;;
51732;SDS011;39139;53.144;6.244;2024-01-27T11:12:33;15.27;;;4.85;;
51732;SDS011;39139;53.144;6.244;2024-01-27T11:14:59;15.40;;;4.45;;
51732;SDS011;39139;53.144;6.244;2024-01-27T11:17:25;18.60;;;4.78;;
51732;SDS011;39139;53.144;6.244;2024-01-27T11:19:51;21.98;;;5.20;;
51732;SDS011;39139;53.144;6.244;2024-01-27T11:22:27;21.17;;;5.20;;
51732;SDS011;39139;53.144;6.244;2024-01-27T11:25:15;17.00;;;4.35;;
51732;SDS011;39139;53.144;6.244;2024-01-27T11:27:43;18.48;;;4.72;;
51732;SDS011;39139;53.144;6.244;2024-01-27T11:30:30;15.00;;;4.20;;
51732;SDS011;39139;53.144;6.244;2024-01-27T11:33:00;16.90;;;4.95;;
51732;SDS011;39139;53.144;6.244;2024-01-27T11:35:28;16.50;;;3.75;;
51732;SDS011;39139;53.144;6.244;2024-01-27T11:37:54;22.38;;;4.72;;
51732;SDS011;39139;53.144;6.244;2024-01-27T11:40:20;23.45;;;4.45;;
51732;SDS011;39139;53.144;6.244;2024-01-27T11:43:01;20.83;;;4.75;;
51732;SDS011;39139;53.144;6.244;2024-01-27T11:45:27;19.80;;;5.10;;
51732;SDS011;39139;53.144;6.244;2024-01-27T11:47:57;19.83;;;5.78;;
51732;SDS011;39139;53.144;6.244;2024-01-27T11:50:25;22.05;;;5.47;;
51732;SDS011;39139;53.144;6.244;2024-01-27T11:52:50;19.60;;;5.50;;
51732;SDS011;39139;53.144;6.244;2024-01-27T11:55:16;17.50;;;5.10;;
51732;SDS011;39139;53.144;6.244;2024-01-27T11:57:44;29.23;;;6.47;;
51732;SDS011;39139;53.144;6.244;2024-01-27T12:00:09;18.70;;;5.07;;
51732;SDS011;39139;53.144;6.244;2024-01-27T12:02:36;21.00;;;4.93;;
51732;SDS011;39139;53.144;6.244;2024-01-27T12:05:05;17.83;;;4.53;;
51732;SDS011;39139;53.144;6.244;2024-01-27T12:07:31;20.90;;;5.15;;
51732;SDS011;39139;53.144;6.244;2024-01-27T12:09:57;27.95;;;6.63;;
51732;SDS011;39139;53.144;6.244;2024-01-27T12:12:22;17.92;;;5.35;;
51732;SDS011;39139;53.144;6.244;2024-01-27T12:14:49;24.83;;;4.97;;
51732;SDS011;39139;53.144;6.244;2024-01-27T12:17:16;21.70;;;5.57;;
51732;SDS011;39139;53.144;6.244;2024-01-27T12:19:50;23.05;;;5.43;;
51732;SDS011;39139;53.144;6.244;2024-01-27T12:22:26;22.23;;;5.90;;
51732;SDS011;39139;53.144;6.244;2024-01-27T12:24:53;25.35;;;5.85;;
51732;SDS011;39139;53.144;6.244;2024-01-27T12:27:21;24.23;;;5.20;;
51732;SDS011;39139;53.144;6.244;2024-01-27T12:32:15;21.10;;;4.20;;
51732;SDS011;39139;53.144;6.244;2024-01-27T12:34:42;25.73;;;5.07;;
51732;SDS011;39139;53.144;6.244;2024-01-27T12:37:08;20.73;;;5.22;;
51732;SDS011;39139;53.144;6.244;2024-01-27T12:39:45;22.70;;;5.82;;
51732;SDS011;39139;53.144;6.244;2024-01-27T12:42:10;17.05;;;4.55;;
51732;SDS011;39139;53.144;6.244;2024-01-27T12:44:36;27.45;;;6.20;;
51732;SDS011;39139;53.144;6.244;2024-01-27T12:47:02;28.30;;;4.95;;
51732;SDS011;39139;53.144;6.244;2024-01-27T12:49:29;22.55;;;5.68;;
51732;SDS011;39139;53.144;6.244;2024-01-27T12:51:55;21.15;;;5.47;;
51732;SDS011;39139;53.144;6.244;2024-01-27T12:54:21;26.98;;;5.53;;
51732;SDS011;39139;53.144;6.244;2024-01-27T12:56:46;21.60;;;4.80;;
51732;SDS011;39139;53.144;6.244;2024-01-27T12:59:12;20.67;;;5.32;;
51732;SDS011;39139;53.144;6.244;2024-01-27T13:01:39;26.20;;;5.22;;
51732;SDS011;39139;53.144;6.244;2024-01-27T13:04:05;22.20;;;4.82;;
51732;SDS011;39139;53.144;6.244;2024-01-27T13:06:30;17.25;;;5.10;;
51732;SDS011;39139;53.144;6.244;2024-01-27T13:08:56;24.35;;;5.05;;
51732;SDS011;39139;53.144;6.244;2024-01-27T13:11:22;23.00;;;5.35;;
51732;SDS011;39139;53.144;6.244;2024-01-27T13:13:47;23.75;;;4.20;;
51732;SDS011;39139;53.144;6.244;2024-01-27T13:16:13;18.27;;;5.03;;
51732;SDS011;39139;53.144;6.244;2024-01-27T13:18:39;17.58;;;5.15;;
51732;SDS011;39139;53.144;6.244;2024-01-27T13:21:04;21.83;;;4.50;;
51732;SDS011;39139;53.144;6.244;2024-01-27T13:23:31;29.73;;;5.15;;
51732;SDS011;39139;53.144;6.244;2024-01-27T13:25:57;28.15;;;5.88;;
51732;SDS011;39139;53.144;6.244;2024-01-27T13:28:23;14.85;;;4.25;;
51732;SDS011;39139;53.144;6.244;2024-01-27T13:30:49;26.08;;;5.43;;
51732;SDS011;39139;53.144;6.244;2024-01-27T13:33:17;20.13;;;5.10;;
51732;SDS011;39139;53.144;6.244;2024-01-27T13:35:43;21.02;;;4.93;;
51732;SDS011;39139;53.144;6.244;2024-01-27T13:38:12;23.10;;;5.43;;
51732;SDS011;39139;53.144;6.244;2024-01-27T13:40:38;18.85;;;4.30;;
51732;SDS011;39139;53.144;6.244;2024-01-27T13:43:03;26.83;;;5.60;;
51732;SDS011;39139;53.144;6.244;2024-01-27T13:45:30;30.30;;;5.68;;
51732;SDS011;39139;53.144;6.244;2024-01-27T13:47:56;26.10;;;5.85;;
51732;SDS011;39139;53.144;6.244;2024-01-27T13:50:22;24.77;;;5.53;;
51732;SDS011;39139;53.144;6.244;2024-01-27T13:52:50;19.23;;;5.43;;
51732;SDS011;39139;53.144;6.244;2024-01-27T13:55:16;20.23;;;5.38;;
51732;SDS011;39139;53.144;6.244;2024-01-27T13:57:42;24.58;;;6.60;;
51732;SDS011;39139;53.144;6.244;2024-01-27T14:00:08;19.00;;;5.22;;
51732;SDS011;39139;53.144;6.244;2024-01-27T14:02:35;23.67;;;6.20;;
51732;SDS011;39139;53.144;6.244;2024-01-27T14:05:01;32.10;;;6.40;;
51732;SDS011;39139;53.144;6.244;2024-01-27T14:07:26;24.23;;;4.95;;
51732;SDS011;39139;53.144;6.244;2024-01-27T14:09:52;21.85;;;5.70;;
51732;SDS011;39139;53.144;6.244;2024-01-27T14:12:17;20.50;;;6.15;;
51732;SDS011;39139;53.144;6.244;2024-01-27T14:14:43;23.17;;;5.88;;
51732;SDS011;39139;53.144;6.244;2024-01-27T14:17:09;21.60;;;6.47;;
51732;SDS011;39139;53.144;6.244;2024-01-27T14:19:35;28.70;;;6.50;;
51732;SDS011;39139;53.144;6.244;2024-01-27T14:22:02;20.70;;;5.88;;
51732;SDS011;39139;53.144;6.244;2024-01-27T14:24:28;20.00;;;5.63;;
51732;SDS011;39139;53.144;6.244;2024-01-27T14:26:53;21.02;;;6.47;;
51732;SDS011;39139;53.144;6.244;2024-01-27T14:29:19;27.95;;;7.03;;
51732;SDS011;39139;53.144;6.244;2024-01-27T14:31:45;32.58;;;6.93;;
51732;SDS011;39139;53.144;6.244;2024-01-27T14:34:11;31.63;;;7.25;;
51732;SDS011;39139;53.144;6.244;2024-01-27T14:36:38;32.42;;;7.13;;